Lone Rock, Iowa
Current Conditions -  °F | °C
As of 7:35 AM on Sunday 23 Nov 2014 (Local Time) from KAXA Reporting Station
Haze Haze  
Wind Chill: 50°   Ceiling: 600
Heat Index: 50°   Visibility: 6mi
Dew Point: 50°   Wind: 15mph
Humidity: 100%   Direction: 190°S
Pressure: 29.48"   Gusts: NA
Location:  43.22°N, 94.33°W
Report Text: KAXA 231335Z AUTO 19013KT 6SM BR OVC006 10/10 A2948 RMK AO2
Loading
Personal Weather Stations






























Interactive Weather Map New forecast layout! Learn more

10-Day Weather Forecast

Advertisements
Track Severe Weather on mobile